createdAt,value
2017-01-29T00:00:26.184Z,0
2017-01-29T00:01:06.848Z,0
2017-01-29T00:01:47.462Z,0
2017-01-29T00:02:28.248Z,0
2017-01-29T00:03:08.913Z,0
2017-01-29T00:03:49.552Z,0
2017-01-29T00:04:30.281Z,0
2017-01-29T00:05:10.918Z,0
2017-01-29T00:05:51.570Z,0
2017-01-29T00:06:32.218Z,0
2017-01-29T00:07:12.867Z,0
2017-01-29T00:07:53.536Z,0
2017-01-29T00:08:34.279Z,0
2017-01-29T00:09:14.931Z,0
2017-01-29T00:09:55.589Z,0
2017-01-29T00:10:36.154Z,0
2017-01-29T00:11:16.794Z,0
2017-01-29T00:11:57.356Z,0
2017-01-29T00:12:37.994Z,0
2017-01-29T00:13:18.642Z,0
2017-01-29T00:13:59.215Z,0
2017-01-29T00:14:39.990Z,0
2017-01-29T00:15:20.780Z,0
2017-01-29T00:16:01.561Z,0
2017-01-29T00:16:42.163Z,0
2017-01-29T00:17:22.814Z,0
2017-01-29T00:18:03.516Z,0
2017-01-29T00:18:44.121Z,0
2017-01-29T00:19:24.886Z,0
2017-01-29T00:20:05.692Z,0
2017-01-29T00:20:46.340Z,0
2017-01-29T00:21:26.993Z,0
2017-01-29T00:22:07.643Z,0
2017-01-29T00:22:48.312Z,0
2017-01-29T00:23:29.131Z,0
2017-01-29T00:24:09.945Z,0
2017-01-29T00:24:50.530Z,0
2017-01-29T00:25:31.185Z,0
2017-01-29T00:26:11.821Z,0
2017-01-29T00:26:52.592Z,0
2017-01-29T00:27:33.442Z,0
2017-01-29T00:28:14.140Z,0
2017-01-29T00:28:54.706Z,0
2017-01-29T00:29:35.304Z,0
2017-01-29T00:30:15.956Z,0
2017-01-29T00:30:56.714Z,0
2017-01-29T00:31:37.406Z,0
2017-01-29T00:32:18.088Z,0
2017-01-29T00:32:58.729Z,0
2017-01-29T00:33:39.355Z,0
2017-01-29T00:34:19.939Z,0
2017-01-29T00:35:00.582Z,0
2017-01-29T00:35:41.226Z,0
2017-01-29T00:36:21.785Z,0
2017-01-29T00:37:02.419Z,0
2017-01-29T00:37:42.998Z,0
2017-01-29T00:38:23.674Z,0
2017-01-29T00:39:04.245Z,0
2017-01-29T00:39:45.904Z,0
2017-01-29T00:40:26.469Z,0
2017-01-29T00:41:07.102Z,0
2017-01-29T00:41:47.712Z,0
2017-01-29T00:42:28.363Z,0
2017-01-29T00:43:08.929Z,0
2017-01-29T00:43:49.552Z,0
2017-01-29T00:44:30.141Z,0
2017-01-29T00:45:10.707Z,0
2017-01-29T00:45:51.325Z,0
2017-01-29T00:46:31.882Z,0
2017-01-29T00:47:12.521Z,0
2017-01-29T00:47:53.111Z,0
2017-01-29T00:48:33.726Z,0
2017-01-29T00:49:14.314Z,0
2017-01-29T00:49:54.926Z,0
2017-01-29T00:50:35.504Z,0
2017-01-29T00:51:16.133Z,0
2017-01-29T00:51:56.785Z,0
2017-01-29T00:52:37.500Z,0
2017-01-29T00:53:18.105Z,0
2017-01-29T00:53:58.782Z,0
2017-01-29T00:54:39.400Z,0
2017-01-29T00:55:20.042Z,0
2017-01-29T00:56:00.594Z,0
2017-01-29T00:56:41.254Z,0
2017-01-29T00:57:21.840Z,0
2017-01-29T00:58:02.454Z,0
2017-01-29T00:58:43.098Z,0
2017-01-29T00:59:23.694Z,0
2017-01-29T01:00:04.314Z,0
2017-01-29T01:00:44.973Z,0
2017-01-29T01:01:25.613Z,0
2017-01-29T01:02:06.256Z,0
2017-01-29T01:02:46.852Z,0
2017-01-29T01:03:27.543Z,0
2017-01-29T01:04:08.176Z,0
2017-01-29T01:04:48.825Z,0
2017-01-29T01:05:29.479Z,0
2017-01-29T01:06:10.085Z,0
2017-01-29T01:06:50.740Z,0
2017-01-29T01:07:31.312Z,0
2017-01-29T01:08:11.886Z,0
2017-01-29T01:08:52.496Z,0
2017-01-29T01:09:33.065Z,0
2017-01-29T01:10:13.664Z,0
2017-01-29T01:10:54.245Z,0
2017-01-29T01:11:34.894Z,0
2017-01-29T01:12:16.576Z,0
2017-01-29T01:12:57.228Z,0
2017-01-29T01:13:37.877Z,0
2017-01-29T01:14:18.454Z,0
2017-01-29T01:14:59.070Z,0
2017-01-29T01:15:39.737Z,0
2017-01-29T01:16:20.424Z,0
2017-01-29T01:17:01.036Z,0
2017-01-29T01:17:41.697Z,0
2017-01-29T01:18:22.349Z,0
2017-01-29T01:19:02.932Z,0
2017-01-29T01:19:43.650Z,0
2017-01-29T01:20:24.300Z,0
2017-01-29T01:21:04.954Z,0
2017-01-29T01:21:45.612Z,0
2017-01-29T01:22:26.261Z,0
2017-01-29T01:23:06.918Z,0
2017-01-29T01:23:47.575Z,0
2017-01-29T01:24:28.220Z,0
2017-01-29T01:25:08.882Z,0
2017-01-29T01:25:49.527Z,0
2017-01-29T01:26:30.115Z,0
2017-01-29T01:27:10.828Z,0
2017-01-29T01:27:51.556Z,0
2017-01-29T01:28:32.244Z,0
2017-01-29T01:29:12.893Z,0
2017-01-29T01:29:53.562Z,0
2017-01-29T01:30:34.119Z,0
2017-01-29T01:31:14.758Z,0
2017-01-29T01:31:55.401Z,0
2017-01-29T01:32:35.987Z,0
2017-01-29T01:33:16.605Z,0
2017-01-29T01:33:57.179Z,0
2017-01-29T01:34:37.811Z,0
2017-01-29T01:35:18.387Z,0
2017-01-29T01:35:59.015Z,0
2017-01-29T01:36:39.586Z,0
2017-01-29T01:37:20.217Z,0
2017-01-29T01:38:00.795Z,0
2017-01-29T01:38:41.439Z,0
2017-01-29T01:39:22.003Z,0
2017-01-29T01:40:02.624Z,0
2017-01-29T01:40:44.083Z,0
2017-01-29T01:41:23.890Z,0
2017-01-29T01:42:04.546Z,0
2017-01-29T01:42:45.148Z,0
2017-01-29T01:43:25.738Z,0
2017-01-29T01:44:06.388Z,0
2017-01-29T01:44:47.040Z,0
2017-01-29T01:45:27.694Z,0
2017-01-29T01:46:08.299Z,0
2017-01-29T01:46:48.955Z,0
2017-01-29T01:47:29.533Z,0
2017-01-29T01:48:10.167Z,0
2017-01-29T01:48:50.744Z,0
2017-01-29T01:49:31.403Z,0
2017-01-29T01:50:12.012Z,0
2017-01-29T01:50:52.663Z,0
2017-01-29T01:51:33.232Z,0
2017-01-29T01:52:13.813Z,0
2017-01-29T01:52:54.420Z,0
2017-01-29T01:53:35.071Z,0
2017-01-29T01:54:15.639Z,0
2017-01-29T01:54:56.243Z,0
2017-01-29T01:55:36.922Z,0
2017-01-29T01:56:17.493Z,0
2017-01-29T01:56:58.136Z,0
2017-01-29T01:57:38.709Z,0
2017-01-29T01:58:20.305Z,0
2017-01-29T01:59:00.882Z,0
2017-01-29T01:59:41.511Z,0
2017-01-29T02:00:22.108Z,0
2017-01-29T02:01:02.663Z,0
2017-01-29T02:01:44.019Z,0
2017-01-29T02:02:24.582Z,0
2017-01-29T02:03:05.238Z,0
2017-01-29T02:03:45.822Z,0
2017-01-29T02:04:26.534Z,0
2017-01-29T02:05:07.107Z,0
2017-01-29T02:05:47.694Z,0
2017-01-29T02:06:28.430Z,0
2017-01-29T02:07:08.987Z,0
2017-01-29T02:07:49.652Z,0
2017-01-29T02:08:30.263Z,0
2017-01-29T02:09:10.835Z,0
2017-01-29T02:09:51.510Z,0
2017-01-29T02:10:32.108Z,0
2017-01-29T02:11:12.689Z,0
2017-01-29T02:11:53.286Z,0
2017-01-29T02:12:33.868Z,0
2017-01-29T02:13:14.429Z,0
2017-01-29T02:13:55.071Z,0
2017-01-29T02:14:35.736Z,0
2017-01-29T02:15:16.304Z,0
2017-01-29T02:15:56.945Z,0
2017-01-29T02:16:37.578Z,0
2017-01-29T02:17:18.140Z,0
2017-01-29T02:17:58.729Z,0
2017-01-29T02:18:39.328Z,0
2017-01-29T02:19:19.897Z,0
2017-01-29T02:20:00.506Z,0
2017-01-29T02:20:41.089Z,0
2017-01-29T02:21:21.739Z,0
2017-01-29T02:22:02.392Z,0
2017-01-29T02:22:42.976Z,0
2017-01-29T02:23:23.648Z,0
2017-01-29T02:24:04.356Z,0
2017-01-29T02:24:45.103Z,0
2017-01-29T02:25:25.758Z,0
2017-01-29T02:26:06.328Z,0
2017-01-29T02:26:46.964Z,0
2017-01-29T02:27:28.557Z,0
2017-01-29T02:28:09.144Z,0
2017-01-29T02:28:49.744Z,0
2017-01-29T02:29:30.397Z,0
2017-01-29T02:30:10.976Z,0
2017-01-29T02:30:51.609Z,0
2017-01-29T02:31:32.178Z,0
2017-01-29T02:32:12.818Z,0
2017-01-29T02:32:53.382Z,0
2017-01-29T02:33:33.998Z,0
2017-01-29T02:34:14.677Z,0
2017-01-29T02:36:27.919Z,0
2017-01-29T02:37:08.532Z,0
2017-01-29T02:37:49.188Z,0
2017-01-29T02:38:29.853Z,0
2017-01-29T02:39:10.487Z,0
2017-01-29T02:39:51.144Z,0
2017-01-29T02:40:31.792Z,0
2017-01-29T02:41:12.456Z,0
2017-01-29T02:41:53.105Z,0
2017-01-29T02:42:33.754Z,0
2017-01-29T02:43:14.402Z,0
2017-01-29T02:43:55.063Z,0
2017-01-29T02:44:35.716Z,0
2017-01-29T02:45:16.367Z,0
2017-01-29T02:45:57.029Z,0
2017-01-29T02:46:37.673Z,0
2017-01-29T02:47:18.326Z,0
2017-01-29T02:47:58.976Z,0
2017-01-29T02:48:39.640Z,0
2017-01-29T02:49:20.289Z,0
2017-01-29T02:50:00.941Z,0
2017-01-29T02:50:41.514Z,0
2017-01-29T02:51:22.170Z,0
2017-01-29T02:52:02.803Z,0
2017-01-29T02:52:43.355Z,0
2017-01-29T02:53:24.000Z,0
2017-01-29T02:54:04.660Z,0
2017-01-29T02:54:45.227Z,0
2017-01-29T02:55:25.857Z,0
2017-01-29T02:56:06.505Z,0
2017-01-29T02:56:47.089Z,0
2017-01-29T02:57:27.763Z,0
2017-01-29T02:58:08.365Z,0
2017-01-29T02:58:49.029Z,0
2017-01-29T02:59:29.593Z,0
2017-01-29T03:00:10.180Z,0
2017-01-29T03:00:50.768Z,0
2017-01-29T03:01:31.432Z,0
2017-01-29T03:02:11.998Z,0
2017-01-29T03:02:52.602Z,0
2017-01-29T03:03:33.203Z,0
2017-01-29T03:04:13.839Z,0
2017-01-29T03:04:54.411Z,0
2017-01-29T03:05:35.000Z,0
2017-01-29T03:06:15.583Z,0
2017-01-29T03:06:56.244Z,0
2017-01-29T03:07:37.913Z,0
2017-01-29T03:08:18.563Z,0
2017-01-29T03:08:59.226Z,0
2017-01-29T03:09:39.875Z,0
2017-01-29T03:10:20.526Z,0
2017-01-29T03:11:01.180Z,0
2017-01-29T03:11:41.825Z,0
2017-01-29T03:12:23.414Z,0
2017-01-29T03:13:03.983Z,0
2017-01-29T03:13:44.595Z,0
2017-01-29T03:14:25.269Z,0
2017-01-29T03:15:05.912Z,0
2017-01-29T03:15:46.490Z,0
2017-01-29T03:16:27.082Z,0
2017-01-29T03:17:07.722Z,0
2017-01-29T03:17:48.404Z,0
2017-01-29T03:18:29.042Z,0
2017-01-29T03:19:10.717Z,0
2017-01-29T03:19:51.356Z,0
2017-01-29T03:20:32.026Z,0
2017-01-29T03:21:12.666Z,0
2017-01-29T03:21:53.335Z,0
2017-01-29T03:22:33.988Z,0
2017-01-29T03:23:14.641Z,0
2017-01-29T03:23:55.276Z,0
2017-01-29T03:24:35.944Z,0
2017-01-29T03:25:16.592Z,0
2017-01-29T03:25:57.227Z,0
2017-01-29T03:26:37.911Z,0
2017-01-29T03:27:18.555Z,0
2017-01-29T03:27:59.190Z,0
2017-01-29T03:28:39.859Z,0
2017-01-29T03:29:20.515Z,0
2017-01-29T03:30:01.148Z,0
2017-01-29T03:30:41.816Z,0
2017-01-29T03:31:22.468Z,0
2017-01-29T03:32:03.122Z,0
2017-01-29T03:32:43.779Z,0
2017-01-29T03:33:24.423Z,0
2017-01-29T03:34:05.088Z,0
2017-01-29T03:34:45.732Z,0
2017-01-29T03:35:26.386Z,0
2017-01-29T03:36:07.030Z,0
2017-01-29T03:36:47.632Z,0
2017-01-29T03:37:28.196Z,0
2017-01-29T03:38:08.842Z,0
2017-01-29T03:38:49.487Z,0
2017-01-29T03:39:30.054Z,0
2017-01-29T03:40:10.692Z,0
2017-01-29T03:40:51.347Z,0
2017-01-29T03:41:32.005Z,0
2017-01-29T03:42:12.659Z,0
2017-01-29T03:42:53.306Z,0
2017-01-29T03:43:35.008Z,0
2017-01-29T03:44:15.634Z,0
2017-01-29T03:44:56.294Z,0
2017-01-29T03:45:36.939Z,0
2017-01-29T03:46:17.600Z,0
2017-01-29T03:46:58.248Z,0
2017-01-29T03:47:38.901Z,0
2017-01-29T03:48:19.550Z,0
2017-01-29T03:49:00.213Z,0
2017-01-29T03:49:40.868Z,0
2017-01-29T03:50:21.520Z,0
2017-01-29T03:51:02.160Z,0
2017-01-29T03:51:42.814Z,0
2017-01-29T03:52:23.485Z,0
2017-01-29T03:53:04.124Z,0
2017-01-29T03:53:44.779Z,0
2017-01-29T03:54:25.429Z,0
2017-01-29T03:55:06.092Z,0
2017-01-29T03:55:46.736Z,0
2017-01-29T03:56:27.385Z,0
2017-01-29T03:57:08.039Z,0
2017-01-29T03:57:48.692Z,0
2017-01-29T03:58:29.356Z,0
2017-01-29T03:59:10.008Z,0
2017-01-29T03:59:50.668Z,0
2017-01-29T04:00:31.301Z,0
2017-01-29T04:01:11.963Z,0
2017-01-29T04:01:52.620Z,0
2017-01-29T04:02:33.276Z,0
2017-01-29T04:03:14.942Z,0
2017-01-29T04:03:55.602Z,0
2017-01-29T04:04:36.255Z,0
2017-01-29T04:05:16.906Z,0
2017-01-29T04:05:57.551Z,0
2017-01-29T04:06:38.204Z,0
2017-01-29T04:07:18.866Z,0
2017-01-29T04:07:59.520Z,0
2017-01-29T04:08:40.173Z,0
2017-01-29T04:09:20.824Z,0
2017-01-29T04:10:02.504Z,0
2017-01-29T04:10:43.112Z,0
2017-01-29T04:11:23.670Z,0
2017-01-29T04:12:04.255Z,0
2017-01-29T04:12:44.852Z,0
2017-01-29T04:13:25.514Z,0
2017-01-29T04:14:06.109Z,0
2017-01-29T04:14:46.789Z,0
2017-01-29T04:15:27.357Z,0
2017-01-29T04:16:08.019Z,0
2017-01-29T04:16:48.589Z,0
2017-01-29T04:17:29.185Z,0
2017-01-29T04:18:09.767Z,0
2017-01-29T04:18:50.430Z,0
2017-01-29T04:19:31.000Z,0
2017-01-29T04:20:11.588Z,0
2017-01-29T04:20:52.190Z,0
2017-01-29T04:21:32.834Z,0
2017-01-29T04:22:14.399Z,0
2017-01-29T04:22:55.058Z,0
2017-01-29T04:23:35.717Z,0
2017-01-29T04:24:16.366Z,0
2017-01-29T04:24:57.038Z,0
2017-01-29T04:25:37.679Z,0
2017-01-29T04:26:18.339Z,0
2017-01-29T04:26:58.898Z,0
2017-01-29T04:27:39.528Z,0
2017-01-29T04:28:20.175Z,0
2017-01-29T04:29:00.743Z,0
2017-01-29T04:29:41.377Z,0
2017-01-29T04:30:22.040Z,0
2017-01-29T04:31:02.616Z,0
2017-01-29T04:31:43.245Z,0
2017-01-29T04:32:23.913Z,0
2017-01-29T04:33:04.540Z,0
2017-01-29T04:33:45.221Z,0
2017-01-29T04:34:25.864Z,0
2017-01-29T04:35:06.521Z,0
2017-01-29T04:35:47.167Z,0
2017-01-29T04:36:27.811Z,0
2017-01-29T04:37:08.397Z,0
2017-01-29T04:37:48.968Z,0
2017-01-29T04:38:29.570Z,0
2017-01-29T04:39:10.213Z,0
2017-01-29T04:39:50.791Z,0
2017-01-29T04:40:31.377Z,0
2017-01-29T04:41:11.965Z,0
2017-01-29T04:41:52.632Z,0
2017-01-29T04:42:33.313Z,0
2017-01-29T04:43:13.937Z,0
2017-01-29T04:43:54.584Z,0
2017-01-29T04:44:35.242Z,0
2017-01-29T04:45:15.887Z,0
2017-01-29T04:45:56.563Z,0
2017-01-29T04:46:37.206Z,0
2017-01-29T04:47:17.880Z,0
2017-01-29T04:47:58.502Z,0
2017-01-29T04:48:39.152Z,0
2017-01-29T04:49:19.810Z,0
2017-01-29T04:50:00.494Z,0
2017-01-29T04:50:41.217Z,0
2017-01-29T04:51:21.780Z,0
2017-01-29T04:52:02.332Z,0
2017-01-29T04:52:42.922Z,0
2017-01-29T04:53:23.515Z,0
2017-01-29T04:54:04.175Z,0
2017-01-29T04:54:44.750Z,0
2017-01-29T04:55:25.333Z,0
2017-01-29T04:56:05.936Z,0
2017-01-29T04:56:46.578Z,0
2017-01-29T04:57:27.233Z,0
2017-01-29T04:58:07.893Z,0
2017-01-29T04:58:48.543Z,0
2017-01-29T04:59:29.090Z,0
2017-01-29T05:00:09.749Z,0
2017-01-29T05:00:50.407Z,0
2017-01-29T05:01:31.052Z,0
2017-01-29T05:02:11.703Z,0
2017-01-29T05:02:52.365Z,0
2017-01-29T05:03:33.011Z,0
2017-01-29T05:04:13.683Z,0
2017-01-29T05:04:54.323Z,0
2017-01-29T05:05:34.972Z,0
2017-01-29T05:06:15.547Z,0
2017-01-29T05:06:56.173Z,0
2017-01-29T05:07:36.857Z,0
2017-01-29T05:08:17.434Z,0
2017-01-29T05:08:58.026Z,0
2017-01-29T05:09:38.690Z,0
2017-01-29T05:10:19.255Z,0
2017-01-29T05:10:59.888Z,0
2017-01-29T05:11:40.556Z,0
2017-01-29T05:12:21.115Z,0
2017-01-29T05:13:01.701Z,0
2017-01-29T05:13:42.289Z,0
2017-01-29T05:14:22.946Z,0
2017-01-29T05:15:03.510Z,0
2017-01-29T05:15:44.104Z,0
2017-01-29T05:16:24.707Z,0
2017-01-29T05:17:05.359Z,0
2017-01-29T05:17:45.939Z,0
2017-01-29T05:18:26.608Z,0
2017-01-29T05:19:07.235Z,0
2017-01-29T05:19:48.884Z,0
2017-01-29T05:20:29.451Z,0
2017-01-29T05:21:10.041Z,0
2017-01-29T05:21:50.688Z,0
2017-01-29T05:22:31.366Z,0
2017-01-29T05:23:12.001Z,0
2017-01-29T05:23:52.655Z,0
2017-01-29T05:24:33.301Z,0
2017-01-29T05:25:13.959Z,0
2017-01-29T05:25:54.610Z,0
2017-01-29T05:26:35.327Z,0
2017-01-29T05:27:15.983Z,0
2017-01-29T05:27:56.628Z,0
2017-01-29T05:28:37.289Z,0
2017-01-29T05:29:17.941Z,0
2017-01-29T05:29:59.604Z,0
2017-01-29T05:30:40.271Z,0
2017-01-29T05:31:20.906Z,0
2017-01-29T05:32:01.585Z,0
2017-01-29T05:32:42.228Z,0
2017-01-29T05:33:22.878Z,0
2017-01-29T05:34:03.525Z,0
2017-01-29T05:34:44.205Z,0
2017-01-29T05:35:24.866Z,0
2017-01-29T05:36:05.482Z,0
2017-01-29T05:36:46.147Z,0
2017-01-29T05:37:26.789Z,0
2017-01-29T05:38:07.451Z,0
2017-01-29T05:38:48.111Z,0
2017-01-29T05:39:28.747Z,0
2017-01-29T05:40:09.403Z,0
2017-01-29T05:40:50.050Z,0
2017-01-29T05:41:30.710Z,0
2017-01-29T05:42:11.367Z,0
2017-01-29T05:42:52.027Z,0
2017-01-29T05:43:32.670Z,0
2017-01-29T05:44:13.314Z,0
2017-01-29T05:44:53.979Z,0
2017-01-29T05:45:34.618Z,0
2017-01-29T05:46:15.286Z,0
2017-01-29T05:46:55.940Z,0
2017-01-29T05:47:36.588Z,0
2017-01-29T05:48:17.257Z,0
2017-01-29T05:48:57.891Z,0
2017-01-29T05:49:38.555Z,0
2017-01-29T05:50:19.197Z,0
2017-01-29T05:51:00.879Z,0
2017-01-29T05:51:41.540Z,0
2017-01-29T05:52:22.196Z,0
2017-01-29T05:53:02.853Z,0
2017-01-29T05:53:43.481Z,0
2017-01-29T05:54:25.071Z,0
2017-01-29T05:55:05.705Z,0
2017-01-29T05:55:46.366Z,0
2017-01-29T05:56:27.015Z,0
2017-01-29T05:57:07.689Z,0
2017-01-29T05:57:48.342Z,0
2017-01-29T05:58:28.971Z,0
2017-01-29T05:59:09.636Z,0
2017-01-29T05:59:50.294Z,0
2017-01-29T06:00:30.859Z,0
2017-01-29T06:01:11.506Z,0
2017-01-29T06:01:52.163Z,0
2017-01-29T06:02:32.787Z,0
2017-01-29T06:03:13.445Z,0
2017-01-29T06:03:54.098Z,0
2017-01-29T06:04:34.766Z,0
2017-01-29T06:05:15.405Z,0
2017-01-29T06:05:56.067Z,0
2017-01-29T06:06:36.707Z,0
2017-01-29T06:07:17.363Z,0
2017-01-29T06:07:58.025Z,0
2017-01-29T06:08:38.664Z,0
2017-01-29T06:09:19.332Z,0
2017-01-29T06:09:59.978Z,0
2017-01-29T06:10:40.633Z,0
2017-01-29T06:11:21.289Z,0
2017-01-29T06:12:01.931Z,0
2017-01-29T06:12:42.594Z,0
2017-01-29T06:13:23.247Z,0
2017-01-29T06:14:03.896Z,0
2017-01-29T06:14:44.542Z,0
2017-01-29T06:15:25.199Z,0
2017-01-29T06:16:05.846Z,0
2017-01-29T06:16:46.500Z,0
2017-01-29T06:17:27.156Z,0
2017-01-29T06:18:07.808Z,0
2017-01-29T06:18:48.462Z,0
2017-01-29T06:19:29.112Z,0
2017-01-29T06:20:09.788Z,0
2017-01-29T06:20:50.431Z,0
2017-01-29T06:21:30.986Z,0
2017-01-29T06:22:11.683Z,0
2017-01-29T06:22:52.272Z,0
2017-01-29T06:23:32.825Z,0
2017-01-29T06:24:14.500Z,0
2017-01-29T06:24:55.166Z,0
2017-01-29T06:25:35.740Z,0
2017-01-29T06:26:16.366Z,0
2017-01-29T06:26:57.009Z,0
2017-01-29T06:27:37.597Z,0
2017-01-29T06:28:18.261Z,0
2017-01-29T06:28:58.865Z,0
2017-01-29T06:29:39.530Z,0
2017-01-29T06:30:20.088Z,0
2017-01-29T06:31:00.675Z,0
2017-01-29T06:31:41.258Z,0
2017-01-29T06:32:22.849Z,0
2017-01-29T06:33:03.417Z,0
2017-01-29T06:33:44.012Z,0
2017-01-29T06:34:24.601Z,0
2017-01-29T06:35:05.260Z,0
2017-01-29T06:35:45.816Z,0
2017-01-29T06:36:26.417Z,0
2017-01-29T06:37:07.008Z,0
2017-01-29T06:37:47.590Z,0
2017-01-29T06:38:28.225Z,0
2017-01-29T06:39:08.874Z,0
2017-01-29T06:39:49.439Z,0
2017-01-29T06:40:30.068Z,0
2017-01-29T06:41:10.728Z,4
2017-01-29T06:41:51.383Z,4
2017-01-29T06:42:32.028Z,4
2017-01-29T06:43:12.685Z,4
2017-01-29T06:43:53.331Z,4
2017-01-29T06:44:33.992Z,0
2017-01-29T06:45:14.653Z,0
2017-01-29T06:45:55.296Z,0
2017-01-29T06:46:35.875Z,4
2017-01-29T06:47:16.557Z,4
2017-01-29T06:47:57.153Z,4
2017-01-29T06:48:37.806Z,4
2017-01-29T06:49:18.357Z,4
2017-01-29T06:49:58.958Z,4
2017-01-29T06:50:39.540Z,4
2017-01-29T06:51:20.211Z,8
2017-01-29T06:52:00.863Z,4
2017-01-29T06:52:41.518Z,8
2017-01-29T06:53:22.169Z,8
2017-01-29T06:54:03.743Z,4
2017-01-29T06:54:44.396Z,8
2017-01-29T06:55:25.056Z,8
2017-01-29T06:56:05.705Z,12
2017-01-29T06:56:47.380Z,8
2017-01-29T06:57:28.035Z,12
2017-01-29T06:58:08.686Z,12
2017-01-29T06:58:49.338Z,12
2017-01-29T06:59:29.992Z,12
2017-01-29T07:00:10.643Z,16
2017-01-29T07:00:51.294Z,16
2017-01-29T07:01:31.846Z,20
2017-01-29T07:02:12.457Z,20
2017-01-29T07:02:53.028Z,20
2017-01-29T07:03:33.599Z,24
2017-01-29T07:04:14.156Z,24
2017-01-29T07:04:55.776Z,28
2017-01-29T07:05:36.391Z,24
2017-01-29T07:06:17.029Z,28
2017-01-29T07:06:57.681Z,32
2017-01-29T07:07:38.384Z,32
2017-01-29T07:08:19.000Z,36
2017-01-29T07:08:59.647Z,36
2017-01-29T07:09:40.292Z,40
2017-01-29T07:10:20.952Z,40
2017-01-29T07:11:01.620Z,44
2017-01-29T07:11:42.256Z,44
2017-01-29T07:12:22.903Z,48
2017-01-29T07:13:03.560Z,48
2017-01-29T07:13:44.212Z,52
2017-01-29T07:14:24.864Z,56
2017-01-29T07:15:05.514Z,56
2017-01-29T07:15:46.165Z,60
2017-01-29T07:16:26.822Z,64
2017-01-29T07:17:07.476Z,72
2017-01-29T07:17:48.160Z,76
2017-01-29T07:18:28.779Z,80
2017-01-29T07:19:09.438Z,84
2017-01-29T07:19:50.084Z,92
2017-01-29T07:20:30.742Z,100
2017-01-29T07:21:11.402Z,108
2017-01-29T07:21:51.948Z,112
2017-01-29T07:22:32.580Z,120
2017-01-29T07:23:13.245Z,128
2017-01-29T07:23:53.814Z,136
2017-01-29T07:24:34.479Z,140
2017-01-29T07:25:15.100Z,144
2017-01-29T07:25:55.643Z,152
2017-01-29T07:26:36.306Z,160
2017-01-29T07:27:16.961Z,172
2017-01-29T07:27:57.590Z,184
2017-01-29T07:28:38.242Z,204
2017-01-29T07:29:18.915Z,224
2017-01-29T07:29:59.576Z,244
2017-01-29T07:30:40.145Z,264
2017-01-29T07:31:20.732Z,284
2017-01-29T07:32:01.358Z,308
2017-01-29T07:32:42.004Z,324
2017-01-29T07:33:22.639Z,340
2017-01-29T07:34:03.303Z,352
2017-01-29T07:34:43.944Z,356
2017-01-29T07:35:24.590Z,360
2017-01-29T07:36:05.248Z,368
2017-01-29T07:36:45.894Z,372
2017-01-29T07:37:26.472Z,392
2017-01-29T07:38:07.046Z,404
2017-01-29T07:38:47.664Z,432
2017-01-29T07:39:28.299Z,464
2017-01-29T07:40:08.869Z,496
2017-01-29T07:40:49.455Z,524
2017-01-29T07:41:30.054Z,544
2017-01-29T07:42:10.703Z,552
2017-01-29T07:42:51.409Z,560
2017-01-29T07:43:32.011Z,556
2017-01-29T07:44:12.674Z,556
2017-01-29T07:44:53.331Z,548
2017-01-29T07:45:33.967Z,540
2017-01-29T07:46:14.626Z,540
2017-01-29T07:46:55.275Z,536
2017-01-29T07:47:35.931Z,532
2017-01-29T07:48:16.598Z,528
2017-01-29T07:48:57.254Z,520
2017-01-29T07:49:37.889Z,512
2017-01-29T07:50:18.546Z,504
2017-01-29T07:50:59.191Z,500
2017-01-29T07:51:39.842Z,516
2017-01-29T07:52:20.502Z,524
2017-01-29T07:53:01.170Z,524
2017-01-29T07:53:41.805Z,516
2017-01-29T07:54:22.460Z,504
2017-01-29T07:55:03.125Z,500
2017-01-29T07:55:43.771Z,504
2017-01-29T07:56:24.435Z,512
2017-01-29T07:57:05.075Z,524
2017-01-29T07:57:45.726Z,540
2017-01-29T07:58:26.385Z,544
2017-01-29T07:59:07.033Z,552
2017-01-29T07:59:47.695Z,556
2017-01-29T08:00:28.343Z,564
2017-01-29T08:01:08.989Z,572
2017-01-29T08:01:49.636Z,592
2017-01-29T08:02:30.307Z,612
2017-01-29T08:03:10.950Z,620
2017-01-29T08:03:51.593Z,612
2017-01-29T08:04:32.265Z,576
2017-01-29T08:05:12.910Z,524
2017-01-29T08:05:53.570Z,488
2017-01-29T08:06:34.128Z,468
2017-01-29T08:07:14.703Z,464
2017-01-29T08:07:55.308Z,460
2017-01-29T08:08:35.978Z,472
2017-01-29T08:09:16.539Z,480
2017-01-29T08:09:57.131Z,500
2017-01-29T08:10:37.738Z,516
2017-01-29T08:11:18.384Z,528
2017-01-29T08:11:59.027Z,544
2017-01-29T08:12:39.708Z,576
2017-01-29T08:13:21.363Z,612
2017-01-29T08:14:02.002Z,628
2017-01-29T08:14:42.697Z,608
2017-01-29T08:15:23.307Z,544
2017-01-29T08:16:03.971Z,440
2017-01-29T08:16:44.649Z,336
2017-01-29T08:17:25.287Z,252
2017-01-29T08:18:05.938Z,212
2017-01-29T08:18:46.590Z,200
2017-01-29T08:19:27.232Z,196
2017-01-29T08:20:07.887Z,192
2017-01-29T08:20:48.547Z,196
2017-01-29T08:21:29.202Z,200
2017-01-29T08:22:10.876Z,208
2017-01-29T08:22:51.532Z,200
2017-01-29T08:23:32.183Z,176
2017-01-29T08:24:12.835Z,160
2017-01-29T08:24:53.487Z,152
2017-01-29T08:25:34.146Z,192
2017-01-29T08:26:14.795Z,264
2017-01-29T08:26:55.434Z,312
2017-01-29T08:27:36.100Z,304
2017-01-29T08:28:16.741Z,292
2017-01-29T08:28:57.405Z,288
2017-01-29T08:29:38.052Z,288
2017-01-29T08:30:18.710Z,272
2017-01-29T08:30:59.400Z,228
2017-01-29T08:31:40.137Z,224
2017-01-29T08:32:20.782Z,240
2017-01-29T08:33:01.431Z,272
2017-01-29T08:33:42.071Z,296
2017-01-29T08:34:22.730Z,296
2017-01-29T08:35:03.374Z,316
2017-01-29T08:35:44.027Z,324
2017-01-29T08:36:24.589Z,352
2017-01-29T08:37:05.223Z,416
2017-01-29T08:37:45.884Z,484
2017-01-29T08:38:26.544Z,536
2017-01-29T08:39:07.100Z,580
2017-01-29T08:39:47.700Z,620
2017-01-29T08:40:28.403Z,636
2017-01-29T08:41:09.045Z,620
2017-01-29T08:41:49.707Z,584
2017-01-29T08:42:30.463Z,576
2017-01-29T08:43:11.216Z,608
2017-01-29T08:43:51.975Z,652
2017-01-29T08:44:32.721Z,692
2017-01-29T08:45:13.383Z,644
2017-01-29T08:45:54.137Z,564
2017-01-29T08:46:34.883Z,528
2017-01-29T08:47:15.543Z,536
2017-01-29T08:47:56.198Z,584
2017-01-29T08:48:37.054Z,604
2017-01-29T08:49:17.826Z,600
2017-01-29T08:49:58.461Z,588
2017-01-29T08:50:39.013Z,568
2017-01-29T08:51:19.770Z,572
2017-01-29T08:52:00.525Z,560
2017-01-29T08:52:41.271Z,548
2017-01-29T08:53:22.036Z,528
2017-01-29T08:54:03.712Z,512
2017-01-29T08:54:44.465Z,596
2017-01-29T08:55:25.214Z,524
2017-01-29T08:56:05.977Z,544
2017-01-29T08:56:46.746Z,552
2017-01-29T08:57:27.283Z,548
2017-01-29T08:58:07.999Z,544
2017-01-29T08:58:48.696Z,556
2017-01-29T08:59:29.445Z,580
2017-01-29T09:00:10.023Z,592
2017-01-29T09:00:50.699Z,596
2017-01-29T09:01:31.301Z,592
2017-01-29T09:02:11.984Z,596
2017-01-29T09:02:52.606Z,600
2017-01-29T09:03:33.256Z,616
2017-01-29T09:04:15.855Z,628
2017-01-29T09:04:56.508Z,652
2017-01-29T09:05:37.155Z,656
2017-01-29T09:06:17.812Z,636
2017-01-29T09:06:58.469Z,616
2017-01-29T09:07:39.121Z,660
2017-01-29T09:08:19.772Z,692
2017-01-29T09:09:00.528Z,708
2017-01-29T09:09:41.284Z,736
2017-01-29T09:10:22.040Z,744
2017-01-29T09:11:02.796Z,776
2017-01-29T09:11:43.369Z,848
2017-01-29T09:12:24.047Z,944
2017-01-29T09:13:04.815Z,1036
2017-01-29T09:13:45.388Z,1108
2017-01-29T09:14:25.956Z,1152
2017-01-29T09:15:06.518Z,1180
2017-01-29T09:15:47.113Z,1192
2017-01-29T09:16:27.693Z,1248
2017-01-29T09:17:08.346Z,1396
2017-01-29T09:17:49.042Z,1548
2017-01-29T09:18:29.653Z,1728
2017-01-29T09:19:10.338Z,1896
2017-01-29T09:19:50.961Z,1868
2017-01-29T09:20:31.625Z,1748
2017-01-29T09:21:12.264Z,1708
2017-01-29T09:21:52.934Z,1704
2017-01-29T09:22:33.612Z,1712
2017-01-29T09:23:14.238Z,1680
2017-01-29T09:23:54.891Z,1612
2017-01-29T09:24:35.544Z,1580
2017-01-29T09:25:16.200Z,1544
2017-01-29T09:25:56.849Z,1464
2017-01-29T09:26:37.502Z,1368
2017-01-29T09:27:18.159Z,1316
2017-01-29T09:27:58.809Z,1304
2017-01-29T09:28:39.462Z,1292
2017-01-29T09:29:20.112Z,1256
2017-01-29T09:30:00.767Z,1204
2017-01-29T09:30:41.424Z,1168
2017-01-29T09:31:22.077Z,1188
2017-01-29T09:32:02.730Z,1248
2017-01-29T09:32:43.379Z,1288
2017-01-29T09:33:24.034Z,1372
2017-01-29T09:34:04.684Z,1332
2017-01-29T09:34:45.344Z,1204
2017-01-29T09:35:25.992Z,1104
2017-01-29T09:36:06.645Z,1096
2017-01-29T09:36:47.181Z,1172
2017-01-29T09:37:27.800Z,1256
2017-01-29T09:38:08.449Z,1296
2017-01-29T09:38:49.055Z,1404
2017-01-29T09:39:29.646Z,1472
2017-01-29T09:40:10.312Z,1516
2017-01-29T09:40:50.928Z,1548
2017-01-29T09:41:31.565Z,1600
2017-01-29T09:42:12.149Z,1640
2017-01-29T09:42:52.833Z,1612
2017-01-29T09:43:33.418Z,1548
2017-01-29T09:44:14.071Z,1568
2017-01-29T09:44:54.640Z,1744
2017-01-29T09:45:35.225Z,1836
2017-01-29T09:46:15.824Z,1820
2017-01-29T09:46:56.481Z,1804
2017-01-29T09:47:37.053Z,1648
2017-01-29T09:48:17.632Z,1460
2017-01-29T09:48:58.232Z,1296
2017-01-29T09:49:38.884Z,1248